METAR Data
IDs: Format: Raw Decoded Include TAF

Data at: 1030 UTC 18 Jan 2022

KGAF 180915Z AUTO 13012KT 7SM BKN016 M04/M04 A2949 RMK AO2
KGAF 180855Z AUTO 13012G17KT 6SM BR CLR M04/M04 A2951 RMK AO2
KGAF 180835Z AUTO 12011KT 5SM -SN FEW002 FEW011 FEW029 M04/M04 A2952 RMK AO2
KGAF 180815Z AUTO 11011KT 3SM -SN FEW002 SCT012 BKN019 M05/M05 A2954 RMK AO2
KGAF 180755Z AUTO 11012KT 4SM -SN FEW002 SCT014 OVC033 M05/M05 A2956 RMK AO2
KGAF 180735Z AUTO 10011KT 4SM -SN FEW002 BKN013 BKN036 M05/M05 A2957 RMK AO2
KGAF 180715Z AUTO 09010KT 3SM -SN FEW002 BKN012 BKN044 M06/M06 A2959 RMK AO2
KGAF 180655Z AUTO 10008KT 10SM SCT011 SCT044 M06/M06 A2962 RMK AO2
KGAF 180635Z AUTO 11005KT 7SM -SN FEW011 BKN017 M06/M06 A2965 RMK AO2
KGAF 180615Z AUTO 11006KT 6SM -SN BKN017 OVC033 M06/M06 A2966 RMK AO2
KGAF 180555Z AUTO 12008KT 4SM -SN FEW002 BKN016 OVC033 M06/M06 A2966 RMK AO2
KGAF 180535Z AUTO 11008KT 4SM -SN FEW002 SCT015 BKN023 M06/M07 A2966 RMK AO2
KGAF 180515Z AUTO 08005KT 8SM FEW013 BKN026 M07/M08 A2967 RMK AO2
KGAF 180455Z AUTO 05004KT 8SM -SN SCT024 SCT070 M08/M08 A2968 RMK AO2
KGAF 180435Z AUTO 03005KT 4SM -SN FEW012 FEW020 BKN026 M08/M09 A2971 RMK AO2
KGAF 180415Z AUTO 02006KT 8SM -SN FEW013 SCT020 SCT026 M09/M10 A2972 RMK AO2
KGAF 180355Z AUTO 03005KT 10SM FEW025 SCT075 M09/M10 A2972 RMK AO2
KGAF 180335Z AUTO 03004KT 10SM FEW013 OVC075 M09/M10 A2974 RMK AO2
KGAF 180315Z AUTO 03004KT 10SM SCT013 OVC070 M09/M10 A2975 RMK AO2
KGAF 180255Z AUTO 02004KT 10SM FEW013 OVC070 M09/M10 A2976 RMK AO2
KGAF 180235Z AUTO 02005KT 10SM SCT013 BKN060 OVC070 M09/M10 A2977 RMK AO2
KGAF 180215Z AUTO 02006KT 10SM BKN060 OVC075 M09/M10 A2979 RMK AO2
KGAF 180155Z AUTO 36006KT 10SM FEW060 OVC075 M09/M10 A2980 RMK AO2
KGAF 180135Z AUTO 36006KT 10SM OVC080 M09/M10 A2980 RMK AO2
KGAF 180115Z AUTO 01004KT 8SM OVC080 M09/M10 A2980 RMK AO2
KGAF 180055Z AUTO 02007KT 6SM BR FEW013 SCT080 M10/M11 A2980 RMK AO2
KGAF 180035Z AUTO 01009KT 5SM -SN FEW002 FEW013 FEW027 M10/M11 A2982 RMK AO2
KGAF 180015Z AUTO 01009KT 4SM -SN SCT027 M09/M11 A2983 RMK AO2
KGAF 172355Z AUTO 01011KT 5SM -SN BKN026 BKN037 M09/M10 A2983 RMK AO2
KGAF 172335Z AUTO 01011KT 9SM BKN026 OVC039 M09/M10 A2983 RMK AO2
KGAF 172315Z AUTO 36009G15KT 9SM SCT027 OVC043 M09/M10 A2983 RMK AO2
KGAF 172255Z AUTO 36010KT 8SM BKN028 OVC043 M09/M10 A2983 RMK AO2
KGAF 172235Z AUTO 34007G12KT 8SM OVC029 M09/M10 A2984 RMK AO2
KGAF 172215Z AUTO 35009KT 7SM OVC029 M09/M10 A2984 RMK AO2
KGAF 172155Z AUTO 36011KT 3SM -SN OVC027 M09/M10 A2983 RMK AO2
KGAF 172135Z AUTO 36011KT 4SM -SN OVC026 M08/M09 A2984 RMK AO2
KGAF 172115Z AUTO 36011KT 7SM OVC027 M08/M09 A2984 RMK AO2
KGAF 172055Z AUTO 36011KT 6SM BR OVC024 M08/M09 A2983 RMK AO2
KGAF 172035Z AUTO 35012KT 5SM BR OVC024 M08/M09 A2983 RMK AO2
KGAF 172015Z AUTO 35011KT 4SM BR SCT008 OVC024 M08/M09 A2984 RMK AO2
KGAF 171955Z AUTO 35011KT 4SM -SN OVC008 M08/M09 A2983 RMK AO2
KGAF 171935Z AUTO 35011KT 3SM -SN BKN008 OVC022 M08/M09 A2984 RMK AO2
KGAF 171915Z AUTO 36011KT 5SM BR SCT008 BKN022 OVC027 M07/M08 A2983 RMK AO2
KGAF 171855Z AUTO 01011G16KT 6SM -SN FEW007 OVC027 M07/M08 A2986 RMK AO2
KGAF 171835Z AUTO 36013KT 7SM FEW007 OVC028 M07/M08 A2984 RMK AO2
KGAF 171815Z AUTO 36012KT 7SM OVC028 M07/M08 A2985 RMK AO2
KGAF 171755Z AUTO 36014KT 7SM OVC029 M06/M07 A2985 RMK AO2
KGAF 171735Z AUTO 35013KT 8SM OVC030 M06/M07 A2985 RMK AO2
KGAF 171715Z AUTO 36012KT 9SM OVC030 M06/M07 A2985 RMK AO2
KGAF 171655Z AUTO 01011G18KT 8SM SCT007 OVC029 M05/M06 A2985 RMK AO2
KGAF 171635Z AUTO 02013G19KT 7SM OVC007 M05/M05 A2984 RMK AO2
KGAF 171615Z AUTO 02014KT 8SM BKN008 OVC028 M04/M05 A2983 RMK AO2
KGAF 171555Z AUTO 01013KT 9SM SCT010 OVC027 M03/M04 A2982 RMK AO2
KGAF 171535Z AUTO 35008KT 9SM SCT011 BKN027 OVC031 M03/M04 A2982 RMK AO2
KGAF 171515Z AUTO 34008KT 10SM SCT010 OVC031 M03/M04 A2981 RMK AO2
KGAF 171455Z AUTO 35007KT 9SM FEW009 OVC032 M03/M04 A2981 RMK AO2
KGAF 171435Z AUTO 35007KT 9SM FEW024 BKN032 M02/M03 A2980 RMK AO2
KGAF 171415Z AUTO 34009KT 9SM BKN032 BKN041 M02/M03 A2981 RMK AO2
KGAF 171355Z AUTO 33006KT 10SM FEW014 SCT023 OVC032 M02/M03 A2981 RMK AO2
KGAF 171335Z AUTO 33008G13KT 10SM OVC014 M02/M04 A2981 RMK AO2
KGAF 171315Z AUTO 32007KT 10SM SCT013 BKN018 BKN031 M02/M04 A2981 RMK AO2
KGAF 171255Z AUTO 32008KT 10SM SCT034 M02/M04 A2980 RMK AO2
KGAF 171235Z AUTO 30013KT 10SM FEW018 FEW033 M02/M04 A2979 RMK AO2
KGAF 171215Z AUTO 31010KT 10SM FEW055 M02/M04 A2979 RMK AO2
KGAF 171155Z AUTO 31010KT 10SM BKN055 M02/M04 A2978 RMK AO2
KGAF 171135Z AUTO 30010KT 10SM OVC050 M02/M04 A2978 RMK AO2
KGAF 171115Z AUTO 30007KT 10SM BKN055 M02/M04 A2977 RMK AO2
KGAF 171055Z AUTO 30006KT 10SM SCT055 M02/M04 A2977 RMK AO2
KGAF 171035Z AUTO 31006KT 10SM SCT060 M02/M04 A2977 RMK AO2
KGAF 171015Z AUTO 30005KT 10SM OVC060 M02/M04 A2978 RMK AO2
KGAF 170955Z AUTO 28006KT 10SM OVC060 M02/M03 A2978 RMK AO2
KGAF 170935Z AUTO 28009KT 10SM BKN060 M02/M03 A2979 RMK AO2
KGAF 170915Z AUTO 00000KT 10SM BKN050 M05/M05 A2979 RMK AO2
KGAF 170855Z AUTO 20003KT 10SM OVC050 M05/M05 A2979 RMK AO2
KGAF 170835Z AUTO 18005KT 10SM BKN050 OVC055 M05/M05 A2980 RMK AO2
KGAF 170815Z AUTO 16005KT 10SM OVC055 M06/M06 A2980 RMK AO2
KGAF 170755Z AUTO 18004KT 10SM OVC055 M05/M06 A2980 RMK AO2
KGAF 170735Z AUTO 18007KT 10SM OVC060 M06/M07 A2981 RMK AO2
KGAF 170715Z AUTO 15007KT 10SM OVC060 M07/M07 A2981 RMK AO2
KGAF 170655Z AUTO 15007KT 10SM OVC060 M07/M08 A2982 RMK AO2
KGAF 170635Z AUTO 16006KT 10SM OVC060 M07/M08 A2983 RMK AO2
KGAF 170615Z AUTO 12005KT 10SM BKN060 M07/M08 A2984 RMK AO2
KGAF 170555Z AUTO 17007KT 10SM BKN060 M07/M08 A2984 RMK AO2
KGAF 170535Z AUTO 19012KT 10SM OVC060 M07/M08 A2984 RMK AO2
KGAF 170515Z AUTO 19010KT 6SM BR BKN060 M08/M09 A2986 RMK AO2
KGAF 170455Z AUTO 19012KT 10SM FEW065 M08/M09 A2986 RMK AO2
KGAF 170435Z AUTO 18012KT 10SM CLR M08/M09 A2986 RMK AO2
KGAF 170415Z AUTO 18009KT 10SM CLR M09/M09 A2988 RMK AO2
KGAF 170355Z AUTO 18009KT 10SM FEW027 M08/M09 A2989 RMK AO2
KGAF 170335Z AUTO 17008KT 10SM BKN028 M07/M09 A2990 RMK AO2
KGAF 170315Z AUTO 17007KT 10SM OVC028 M07/M08 A2992 RMK AO2
KGAF 170255Z AUTO 17005KT 10SM OVC029 M07/M08 A2993 RMK AO2
KGAF 170235Z AUTO 20005KT 10SM OVC030 M07/M08 A2994 RMK AO2
KGAF 170215Z AUTO 20005KT 10SM OVC028 M07/M08 A2994 RMK AO2
KGAF 170155Z AUTO 18004KT 10SM OVC028 M07/M08 A2994 RMK AO2
KGAF 170135Z AUTO 00000KT 10SM M07/M09 A2995 RMK AO2
KGAF 170115Z AUTO 00000KT 10SM M07/M09 A2995 RMK AO2
KGAF 170055Z AUTO 00000KT 10SM OVC032 M07/M08 A2995 RMK AO2
KGAF 170035Z AUTO 02003KT 10SM OVC032 M07/M08 A2995 RMK AO2
KGAF 170015Z AUTO 00000KT 10SM OVC032 M07/M08 A2995 RMK AO2
KGAF 162355Z AUTO 02004KT 10SM OVC031 M06/M09 A2996 RMK AO2
KGAF 162335Z AUTO 35006KT 10SM OVC031 M06/M08 A2996 RMK AO2
KGAF 162315Z AUTO 01007KT 9SM OVC031 M06/M09 A2995 RMK AO2
KGAF 162255Z AUTO 36009KT 10SM OVC032 M06/M09 A2995 RMK AO2
KGAF 162235Z AUTO 36008KT 9SM OVC030 M06/M08 A2994 RMK AO2